Time;durP1;ratioP1;P1;durP2;ratioP2;P2;SDS_P1;SDS_P2;PMS_P1;PMS_P2;Temp;Humidity;BMP_temperature;BMP_pressure;BME280_temperature;BME280_humidity;BME280_pressure;Samples;Min_cycle;Max_cycle;Signal;HPM_P1;HPM_P2
2021/01/29 00:02:09;;;;;;;15.68;6.82;;;6.10;78.60;;;;;;5116763;28;20082;-69
2021/01/29 00:04:35;;;;;;;22.00;10.02;;;6.10;78.60;;;;;;5115809;28;20023;-69
2021/01/29 00:07:00;;;;;;;13.13;6.65;;;6.10;78.50;;;;;;5116410;28;20461;-69
2021/01/29 00:09:26;;;;;;;13.80;7.32;;;6.10;78.80;;;;;;5116431;28;20038;-69
2021/01/29 00:11:52;;;;;;;23.77;12.25;;;6.10;78.80;;;;;;5115520;28;20035;-69
2021/01/29 00:14:17;;;;;;;20.73;7.57;;;6.10;79.00;;;;;;5116271;28;20028;-69
2021/01/29 00:16:43;;;;;;;15.07;8.23;;;6.10;79.70;;;;;;5116191;28;20058;-69
2021/01/29 00:19:09;;;;;;;10.23;5.03;;;6.10;79.40;;;;;;5115915;28;20020;-69
2021/01/29 00:21:35;;;;;;;16.60;8.32;;;6.10;79.40;;;;;;5115961;28;20110;-69
2021/01/29 00:24:01;;;;;;;23.15;11.98;;;6.10;79.30;;;;;;5116268;28;20059;-69
2021/01/29 00:26:26;;;;;;;17.58;8.75;;;6.10;79.10;;;;;;5115387;28;20513;-69
2021/01/29 00:28:52;;;;;;;11.48;6.05;;;6.10;79.00;;;;;;5116076;28;20459;-69
2021/01/29 00:31:18;;;;;;;6.63;3.33;;;6.00;79.00;;;;;;5115333;28;20436;-69
2021/01/29 00:33:44;;;;;;;14.85;8.55;;;6.10;79.20;;;;;;5115170;28;20127;-70
2021/01/29 00:36:09;;;;;;;22.95;10.77;;;6.00;79.30;;;;;;5115899;28;20027;-69
2021/01/29 00:38:35;;;;;;;19.00;7.93;;;6.00;79.30;;;;;;5115261;28;20035;-69
2021/01/29 00:41:01;;;;;;;20.88;9.70;;;6.00;79.40;;;;;;5115562;28;20027;-69
2021/01/29 00:43:26;;;;;;;15.35;7.20;;;6.00;79.30;;;;;;5115766;28;20030;-69
2021/01/29 00:45:52;;;;;;;20.60;9.35;;;6.00;79.40;;;;;;5115267;28;20019;-69
2021/01/29 00:48:18;;;;;;;18.83;8.82;;;6.00;79.40;;;;;;5097232;28;20023;-69
2021/01/29 00:50:43;;;;;;;16.88;8.25;;;6.00;79.60;;;;;;5115732;28;20040;-69
2021/01/29 00:53:10;;;;;;;5.75;3.20;;;6.00;80.00;;;;;;5096647;28;20471;-69
2021/01/29 00:55:37;;;;;;;17.58;6.85;;;6.00;80.10;;;;;;5097082;28;20028;-69
2021/01/29 00:58:09;;;;;;;12.50;5.72;;;6.00;80.10;;;;;;5097130;28;20478;-69
2021/01/29 01:01:14;;;;;;;8.38;4.70;;;6.00;80.10;;;;;;5114593;28;20096;-69
2021/01/29 01:03:47;;;;;;;13.88;6.93;;;6.10;80.10;;;;;;5095923;28;20023;-69
2021/01/29 01:06:13;;;;;;;2.80;1.98;;;6.00;80.00;;;;;;5115124;28;20036;-69
2021/01/29 01:08:58;;;;;;;7.65;4.20;;;6.00;80.40;;;;;;5114457;28;20032;-69
2021/01/29 01:11:35;;;;;;;6.65;4.65;;;6.00;80.70;;;;;;5096831;28;20039;-69
2021/01/29 01:14:29;;;;;;;13.10;4.70;;;6.00;80.80;;;;;;5056798;28;20507;-70
2021/01/29 01:17:23;;;;;;;11.87;6.23;;;6.00;80.90;;;;;;5085735;28;20089;-69
2021/01/29 01:20:11;;;;;;;17.27;9.73;;;5.90;80.80;;;;;;5096685;28;20028;-69
2021/01/29 01:22:37;;;;;;;8.95;4.72;;;5.90;80.80;;;;;;5114074;28;20086;-70
2021/01/29 01:25:35;;;;;;;13.70;6.07;;;5.90;81.00;;;;;;5090358;28;20076;-69
2021/01/29 01:28:07;;;;;;;6.45;3.80;;;5.90;81.10;;;;;;5096132;28;20051;-69
2021/01/29 01:30:43;;;;;;;9.20;3.65;;;5.90;81.10;;;;;;5096443;28;20039;-69
2021/01/29 01:33:15;;;;;;;6.70;4.22;;;5.90;81.30;;;;;;5114599;28;20061;-69
2021/01/29 01:36:13;;;;;;;6.28;2.65;;;5.90;81.50;;;;;;5095944;28;20046;-69
2021/01/29 01:38:45;;;;;;;13.07;6.57;;;5.90;81.50;;;;;;5096085;28;20088;-69
2021/01/29 01:41:11;;;;;;;9.60;4.55;;;5.80;81.50;;;;;;5096398;28;20059;-69
2021/01/29 01:43:49;;;;;;;9.30;4.85;;;5.90;81.60;;;;;;5095505;28;20027;-69
2021/01/29 01:46:34;;;;;;;;;;;5.80;81.60;;;;;;5114859;28;20065;-69
2021/01/29 01:49:19;;;;;;;6.13;2.60;;;5.80;81.70;;;;;;5113979;28;19988;-69
2021/01/29 01:52:02;;;;;;;15.57;7.65;;;5.80;81.90;;;;;;5114127;28;20047;-69
2021/01/29 01:54:54;;;;;;;4.82;2.95;;;5.80;82.10;;;;;;5114486;28;20027;-69
2021/01/29 01:57:23;;;;;;;4.28;2.05;;;5.80;82.30;;;;;;5113911;28;20092;-69
2021/01/29 02:00:14;;;;;;;8.52;5.13;;;5.80;82.30;;;;;;5113529;28;20521;-69
2021/01/29 02:02:45;;;;;;;6.80;3.63;;;5.80;82.40;;;;;;5114213;28;20383;-69
2021/01/29 02:05:32;;;;;;;6.03;2.88;;;5.80;82.50;;;;;;5113979;28;20034;-69
2021/01/29 02:08:22;;;;;;;12.60;3.88;;;5.80;82.50;;;;;;5089895;28;20034;-69
2021/01/29 02:11:06;;;;;;;7.90;4.43;;;5.80;82.40;;;;;;5113526;28;20050;-69
2021/01/29 02:14:01;;;;;;;7.60;3.65;;;5.80;82.50;;;;;;5096298;28;20543;-69
2021/01/29 02:17:25;;;;;;;6.75;4.18;;;5.80;82.60;;;;;;5080416;28;20092;-69
2021/01/29 02:20:25;;;;;;;15.95;8.30;;;5.70;82.70;;;;;;5082750;28;20110;-69
2021/01/29 02:23:23;;;;;;;11.38;6.00;;;5.70;82.70;;;;;;5095673;28;20031;-69
2021/01/29 02:26:42;;;;;;;13.40;6.05;;;5.70;82.80;;;;;;5105299;28;20099;-69
2021/01/29 02:30:03;;;;;;;11.95;4.40;;;5.70;82.70;;;;;;5087897;28;20084;-69
2021/01/29 02:32:55;;;;;;;7.82;4.85;;;5.70;82.80;;;;;;5053234;28;20410;-69
2021/01/29 02:35:48;;;;;;;5.22;2.70;;;5.70;82.90;;;;;;5091612;28;20437;-69
2021/01/29 02:38:51;;;;;;;11.00;5.18;;;5.70;83.00;;;;;;5091650;28;20040;-69
2021/01/29 02:41:26;;;;;;;7.85;3.00;;;5.70;83.10;;;;;;5074707;28;20081;-69
2021/01/29 02:44:38;;;;;;;16.83;8.30;;;5.60;83.10;;;;;;5075058;28;20028;-69
2021/01/29 02:47:28;;;;;;;5.30;2.72;;;5.60;83.10;;;;;;5060163;28;20163;-69
2021/01/29 02:50:24;;;;;;;;;;;5.70;83.20;;;;;;5084925;28;20059;-69
2021/01/29 02:53:06;;;;;;;8.50;4.68;;;5.60;83.20;;;;;;5092502;28;20000;-68
2021/01/29 02:56:16;;;;;;;10.38;5.25;;;5.60;83.30;;;;;;5061538;28;20032;-69
2021/01/29 02:59:30;;;;;;;6.15;3.67;;;5.60;83.70;;;;;;5092247;28;20536;-69
2021/01/29 03:02:25;;;;;;;17.27;3.97;;;5.60;83.80;;;;;;5100737;28;20453;-69
2021/01/29 03:05:20;;;;;;;13.90;6.35;;;5.60;83.70;;;;;;5078954;28;20036;-69
2021/01/29 03:07:50;;;;;;;2.90;1.50;;;5.60;83.70;;;;;;5092362;28;20035;-69
2021/01/29 03:10:49;;;;;;;8.35;4.13;;;5.60;83.60;;;;;;5092678;28;20042;-69
2021/01/29 03:13:57;;;;;;;11.80;6.18;;;5.60;83.50;;;;;;5050651;28;20433;-69
2021/01/29 03:17:07;;;;;;;6.60;3.78;;;5.60;83.50;;;;;;5058298;28;20036;-69
2021/01/29 03:20:09;;;;;;;17.88;8.80;;;5.70;83.70;;;;;;5093129;28;20391;-69
2021/01/29 03:22:58;;;;;;;9.73;4.75;;;5.60;83.50;;;;;;5092665;28;20043;-69
2021/01/29 03:25:51;;;;;;;4.68;3.30;;;5.60;83.60;;;;;;5092792;28;20039;-69
2021/01/29 03:28:41;;;;;;;8.70;3.80;;;5.60;83.60;;;;;;5096238;28;20425;-69
2021/01/29 03:31:28;;;;;;;13.68;6.78;;;5.60;83.60;;;;;;5096832;28;20050;-69
2021/01/29 03:34:20;;;;;;;6.43;3.22;;;5.60;83.50;;;;;;5095817;28;20097;-69
2021/01/29 03:38:03;;;;;;;5.00;2.42;;;5.60;83.60;;;;;;5109600;28;20398;-69
2021/01/29 03:41:04;;;;;;;5.05;3.13;;;5.60;83.60;;;;;;5084196;28;20100;-69
2021/01/29 03:44:19;;;;;;;7.60;3.65;;;5.60;83.70;;;;;;5058657;28;20058;-69
2021/01/29 03:47:35;;;;;;;9.10;4.88;;;5.50;83.70;;;;;;5047325;28;20118;-69
2021/01/29 03:50:31;;;;;;;5.15;3.10;;;5.60;83.60;;;;;;5095695;28;20090;-69
2021/01/29 03:53:32;;;;;;;11.70;5.78;;;5.50;83.60;;;;;;5096478;28;20528;-69
2021/01/29 03:56:41;;;;;;;6.43;4.00;;;5.60;83.70;;;;;;5096019;28;20038;-69
2021/01/29 03:59:59;;;;;;;9.35;5.05;;;5.50;83.80;;;;;;5023490;28;20080;-69
2021/01/29 04:03:06;;;;;;;7.20;3.55;;;5.60;83.90;;;;;;5095297;28;20066;-69
2021/01/29 04:06:12;;;;;;;8.30;3.85;;;5.60;83.80;;;;;;5095984;28;20039;-69
2021/01/29 04:09:23;;;;;;;8.35;4.75;;;5.50;83.70;;;;;;5057336;28;20113;-69
2021/01/29 04:12:35;;;;;;;11.60;6.30;;;5.60;83.80;;;;;;5077660;28;20067;-69
2021/01/29 04:15:28;;;;;;;8.55;5.35;;;5.50;83.90;;;;;;5095743;28;20387;-69
2021/01/29 04:18:17;;;;;;;8.02;4.80;;;5.50;83.90;;;;;;5095174;28;20391;-69
2021/01/29 04:20:50;;;;;;;8.23;3.97;;;5.50;83.90;;;;;;5096005;28;20032;-69
2021/01/29 04:23:26;;;;;;;3.40;2.35;;;5.50;83.90;;;;;;5095843;28;20055;-69
2021/01/29 04:25:58;;;;;;;5.97;2.78;;;5.50;83.90;;;;;;5095416;28;20024;-69
2021/01/29 04:28:26;;;;;;;9.75;5.47;;;5.60;84.10;;;;;;5095856;28;20028;-69
2021/01/29 04:30:54;;;;;;;3.97;2.78;;;5.50;83.90;;;;;;5095255;28;20042;-69
2021/01/29 04:33:28;;;;;;;6.68;4.28;;;5.50;83.90;;;;;;5095298;28;20107;-68
2021/01/29 04:35:57;;;;;;;6.75;3.35;;;5.50;84.00;;;;;;5098807;28;20084;-69
2021/01/29 04:38:41;;;;;;;3.20;2.35;;;5.60;84.00;;;;;;5105205;28;20036;-69
2021/01/29 04:41:22;;;;;;;7.18;3.50;;;5.60;84.00;;;;;;5095428;28;20028;-69
2021/01/29 04:44:27;;;;;;;6.88;2.50;;;5.50;83.80;;;;;;5095627;28;20119;-69
2021/01/29 04:47:05;;;;;;;6.30;3.60;;;5.50;83.90;;;;;;5104764;28;20038;-69
2021/01/29 04:49:45;;;;;;;6.15;3.78;;;5.60;83.90;;;;;;5101291;28;20047;-69
2021/01/29 04:52:39;;;;;;;5.22;3.58;;;5.50;83.80;;;;;;5103536;28;20036;-69
2021/01/29 04:55:22;;;;;;;3.42;2.47;;;5.50;83.80;;;;;;5095103;28;20028;-69
2021/01/29 04:58:12;;;;;;;10.75;4.82;;;5.60;83.80;;;;;;5095207;28;20111;-69
2021/01/29 05:01:23;;;;;;;6.20;3.63;;;5.50;84.00;;;;;;5094545;28;20426;-69
2021/01/29 05:04:36;;;;;;;5.97;3.72;;;5.50;83.90;;;;;;5092541;28;20097;-69
2021/01/29 05:07:49;;;;;;;8.90;4.75;;;5.50;84.10;;;;;;5094372;28;20039;-69
2021/01/29 05:11:13;;;;;;;5.13;2.97;;;5.50;84.30;;;;;;5094594;28;20509;-69
2021/01/29 05:13:51;;;;;;;6.22;3.28;;;5.40;84.30;;;;;;5094378;28;20028;-69
2021/01/29 05:16:37;;;;;;;9.52;5.53;;;5.40;84.30;;;;;;5094828;28;20028;-69
2021/01/29 05:19:32;;;;;;;8.18;4.95;;;5.40;84.50;;;;;;5094928;28;20042;-69
2021/01/29 05:22:27;;;;;;;3.80;2.58;;;5.40;84.50;;;;;;5093756;28;20110;-69
2021/01/29 05:25:12;;;;;;;4.88;3.38;;;5.40;84.40;;;;;;5076712;28;20395;-69
2021/01/29 05:27:59;;;;;;;9.70;5.95;;;5.40;84.40;;;;;;5094129;28;20028;-69
2021/01/29 05:30:45;;;;;;;8.10;4.13;;;5.40;84.40;;;;;;5094307;28;20418;-69
2021/01/29 05:33:35;;;;;;;8.18;4.35;;;5.40;84.30;;;;;;5076417;28;20031;-69
2021/01/29 05:36:09;;;;;;;5.57;3.22;;;5.40;84.30;;;;;;5098031;28;20035;-69
2021/01/29 05:38:43;;;;;;;4.63;2.97;;;5.40;84.30;;;;;;5103330;28;20089;-69
2021/01/29 05:41:17;;;;;;;4.95;3.45;;;5.40;84.50;;;;;;5093422;28;20107;-77
2021/01/29 05:43:56;;;;;;;6.80;3.58;;;5.40;84.60;;;;;;5093936;28;20028;-69
2021/01/29 05:46:41;;;;;;;9.10;5.15;;;5.40;84.70;;;;;;5093890;28;20475;-69
2021/01/29 05:49:23;;;;;;;3.95;2.53;;;5.40;84.80;;;;;;5092853;28;20047;-69
2021/01/29 05:52:23;;;;;;;5.13;3.45;;;5.40;84.80;;;;;;5094031;28;20035;-69
2021/01/29 05:55:04;;;;;;;6.47;3.55;;;5.40;84.80;;;;;;5093459;28;20077;-70
2021/01/29 05:57:59;;;;;;;3.17;2.33;;;5.40;84.70;;;;;;5093537;28;20036;-69
2021/01/29 06:00:46;;;;;;;4.53;3.33;;;5.40;84.70;;;;;;5093778;28;20440;-69
2021/01/29 06:03:34;;;;;;;5.55;3.63;;;5.40;84.60;;;;;;5092902;28;20036;-69
2021/01/29 06:06:24;;;;;;;4.35;2.88;;;5.40;84.70;;;;;;5093707;28;20042;-71
2021/01/29 06:09:21;;;;;;;9.93;4.75;;;5.40;84.80;;;;;;5093856;28;20031;-71
2021/01/29 06:12:02;;;;;;;4.10;2.67;;;5.40;84.70;;;;;;5096985;28;20467;-73
2021/01/29 06:15:10;;;;;;;3.22;2.35;;;5.40;84.70;;;;;;5100835;28;20036;-70
2021/01/29 06:17:58;;;;;;;5.03;3.55;;;5.40;84.80;;;;;;5092523;28;20024;-71
2021/01/29 06:20:55;;;;;;;5.47;3.28;;;5.40;84.70;;;;;;5072316;28;20069;-71
2021/01/29 06:24:06;;;;;;;6.50;4.00;;;5.40;84.80;;;;;;5097324;28;20059;-70
2021/01/29 06:27:05;;;;;;;6.47;3.97;;;5.40;84.90;;;;;;5096163;28;20028;-69
2021/01/29 06:29:33;;;;;;;4.68;2.58;;;5.30;84.90;;;;;;5094425;28;20046;-67
2021/01/29 06:32:20;;;;;;;5.90;3.60;;;5.30;85.00;;;;;;5089190;28;20364;-67
2021/01/29 06:35:10;;;;;;;2.72;2.45;;;5.30;85.20;;;;;;5103704;28;20051;-68
2021/01/29 06:37:56;;;;;;;8.07;4.00;;;5.30;85.20;;;;;;5095937;28;20055;-67
2021/01/29 06:40:52;;;;;;;2.55;1.98;;;5.30;85.10;;;;;;5092241;28;20479;-68
2021/01/29 06:43:29;;;;;;;6.95;4.07;;;5.30;85.10;;;;;;5093503;28;20032;-68
2021/01/29 06:46:03;;;;;;;4.30;2.70;;;5.30;85.10;;;;;;5091386;28;20054;-68
2021/01/29 06:48:47;;;;;;;5.10;2.30;;;5.30;85.30;;;;;;5091851;28;20497;-67
2021/01/29 06:51:38;;;;;;;6.00;2.35;;;5.30;85.20;;;;;;5090068;28;20036;-68
2021/01/29 06:54:22;;;;;;;7.53;4.15;;;5.30;85.40;;;;;;5090336;28;20051;-68
2021/01/29 06:57:22;;;;;;;6.18;1.73;;;5.30;85.30;;;;;;5097879;28;20027;-69
2021/01/29 06:59:57;;;;;;;2.55;2.15;;;5.30;85.30;;;;;;5094655;28;20039;-69
2021/01/29 07:02:52;;;;;;;5.45;3.22;;;5.30;85.20;;;;;;5089869;28;20418;-68
2021/01/29 07:05:54;;;;;;;5.82;3.20;;;5.30;85.20;;;;;;5092021;28;20067;-71
2021/01/29 07:08:38;;;;;;;4.13;2.83;;;5.30;85.10;;;;;;5094054;28;20031;-70
2021/01/29 07:11:41;;;;;;;5.72;3.25;;;5.30;85.00;;;;;;5082851;28;20088;-69
2021/01/29 07:14:15;;;;;;;6.57;4.13;;;5.30;85.00;;;;;;5098615;28;20463;-68
2021/01/29 07:17:01;;;;;;;;;;;5.30;84.90;;;;;;5100331;28;20073;-68
2021/01/29 07:19:59;;;;;;;6.40;4.32;;;5.30;85.00;;;;;;5102456;28;20330;-68
2021/01/29 07:22:40;;;;;;;2.88;1.80;;;5.30;84.80;;;;;;5102153;28;20437;-69
2021/01/29 07:25:18;;;;;;;5.68;3.03;;;5.30;84.90;;;;;;5095344;28;20101;-67
2021/01/29 07:27:58;;;;;;;4.03;2.38;;;5.30;85.00;;;;;;5090546;28;20032;-67
2021/01/29 07:31:02;;;;;;;4.32;2.88;;;5.30;85.00;;;;;;5093274;28;20391;-67
2021/01/29 07:33:56;;;;;;;1.60;1.50;;;5.30;85.20;;;;;;5096129;28;20035;-74
2021/01/29 07:36:40;;;;;;;6.93;4.10;;;5.30;85.10;;;;;;5098599;28;20043;-70
2021/01/29 07:39:34;;;;;;;4.53;2.35;;;5.30;85.00;;;;;;5095655;28;20106;-70
2021/01/29 07:42:47;;;;;;;3.63;2.70;;;5.30;85.00;;;;;;5099397;28;20028;-69
2021/01/29 07:45:25;;;;;;;6.70;3.70;;;5.30;84.90;;;;;;5019236;28;20312;-71
2021/01/29 07:48:07;;;;;;;4.63;2.42;;;5.30;84.90;;;;;;5088829;28;20051;-69
2021/01/29 07:50:57;;;;;;;4.22;2.83;;;5.30;84.90;;;;;;5093603;28;20040;-68
2021/01/29 07:53:25;;;;;;;1.05;0.98;;;5.30;84.90;;;;;;5089673;28;20032;-69
2021/01/29 07:56:10;;;;;;;4.72;3.15;;;5.30;84.90;;;;;;5105493;28;20501;-68
2021/01/29 07:58:39;;;;;;;4.00;2.83;;;5.30;84.90;;;;;;5095097;28;20020;-68
2021/01/29 08:01:26;;;;;;;8.23;4.82;;;5.30;84.90;;;;;;5094156;28;20077;-68
2021/01/29 08:04:16;;;;;;;2.45;1.92;;;5.30;84.90;;;;;;5092374;28;20024;-70
2021/01/29 08:07:17;;;;;;;3.42;2.35;;;5.40;84.90;;;;;;5102286;28;20039;-70
2021/01/29 08:09:54;;;;;;;3.17;2.38;;;5.30;84.90;;;;;;5093830;28;20077;-72
2021/01/29 08:12:22;;;;;;;2.92;2.20;;;5.30;84.80;;;;;;5091754;28;20036;-69
2021/01/29 08:15:00;;;;;;;2.25;1.52;;;5.40;84.90;;;;;;5101524;28;20038;-69
2021/01/29 08:17:52;;;;;;;1.83;1.70;;;5.40;84.90;;;;;;5096598;28;20550;-69
2021/01/29 08:20:35;;;;;;;1.52;1.27;;;5.40;84.80;;;;;;5104446;28;20475;-75
2021/01/29 08:23:30;;;;;;;3.67;1.67;;;5.40;85.30;;;;;;5094865;28;20166;-70
2021/01/29 08:26:21;;;;;;;2.22;1.30;;;5.40;84.70;;;;;;5101596;28;20042;-69
2021/01/29 08:29:15;;;;;;;4.30;1.63;;;5.40;84.70;;;;;;5094660;28;20024;-68
2021/01/29 08:32:24;;;;;;;1.60;1.30;;;5.30;84.60;;;;;;5075879;28;20042;-69
2021/01/29 08:35:29;;;;;;;2.63;1.80;;;5.40;84.70;;;;;;5072561;28;20105;-73
2021/01/29 08:38:16;;;;;;;4.18;3.22;;;5.30;84.50;;;;;;5087505;28;20081;-75
2021/01/29 08:40:51;;;;;;;1.95;1.58;;;5.40;84.50;;;;;;5083208;28;20033;-78
2021/01/29 08:43:48;;;;;;;3.05;2.42;;;5.30;84.60;;;;;;5080381;28;20029;-69
2021/01/29 08:46:31;;;;;;;4.05;2.42;;;5.40;84.70;;;;;;5073049;28;20085;-68
2021/01/29 08:49:15;;;;;;;5.18;3.38;;;5.40;84.70;;;;;;5073638;28;20029;-68
2021/01/29 08:51:59;;;;;;;7.72;4.45;;;5.40;84.70;;;;;;5073425;28;20082;-68
2021/01/29 08:54:37;;;;;;;;;;;5.30;84.50;;;;;;5074165;28;20032;-69
2021/01/29 08:57:21;;;;;;;5.55;2.85;;;5.30;84.50;;;;;;5077244;28;20683;-68
2021/01/29 08:59:48;;;;;;;1.88;1.48;;;5.30;84.60;;;;;;5075297;28;20089;-68
2021/01/29 09:02:42;;;;;;;3.55;2.45;;;5.30;84.50;;;;;;5076685;28;20051;-68
2021/01/29 09:05:18;;;;;;;2.70;1.77;;;5.30;84.60;;;;;;5073108;28;20020;-68
2021/01/29 09:07:44;;;;;;;2.15;1.60;;;5.30;84.70;;;;;;5076810;28;20495;-68
2021/01/29 09:10:15;;;;;;;2.78;1.67;;;5.30;84.70;;;;;;5073559;28;20151;-69
2021/01/29 09:12:42;;;;;;;3.15;2.15;;;5.30;84.70;;;;;;5074598;28;20028;-69
2021/01/29 09:15:23;;;;;;;4.25;3.08;;;5.40;84.70;;;;;;5079137;28;20115;-68
2021/01/29 09:18:24;;;;;;;5.20;3.70;;;5.40;84.60;;;;;;5073483;28;20028;-71
2021/01/29 09:21:01;;;;;;;3.38;2.83;;;5.40;84.30;;;;;;5071530;28;20494;-70
2021/01/29 09:23:36;;;;;;;2.08;1.65;;;5.40;84.20;;;;;;5072587;28;20515;-70
2021/01/29 09:26:15;;;;;;;3.53;1.42;;;5.40;84.20;;;;;;5072887;28;20036;-69
2021/01/29 09:28:44;;;;;;;2.60;1.85;;;5.40;84.30;;;;;;5073431;28;20031;-70
2021/01/29 09:31:18;;;;;;;2.95;2.30;;;5.40;84.20;;;;;;5072679;28;20040;-69
2021/01/29 09:33:51;;;;;;;2.95;2.20;;;5.40;84.20;;;;;;5078090;28;20021;-68
2021/01/29 09:36:27;;;;;;;2.83;1.98;;;5.50;84.20;;;;;;5063216;28;20036;-69
2021/01/29 09:39:02;;;;;;;5.38;1.55;;;5.50;84.10;;;;;;5057976;28;20111;-69
2021/01/29 09:41:39;;;;;;;6.30;3.47;;;5.50;84.10;;;;;;5049674;28;20025;-69
2021/01/29 09:44:13;;;;;;;3.60;2.35;;;5.50;84.10;;;;;;5051735;28;20035;-69
2021/01/29 09:46:41;;;;;;;5.57;3.75;;;5.50;84.00;;;;;;5049712;28;20033;-72
2021/01/29 09:49:11;;;;;;;3.50;1.42;;;5.50;84.00;;;;;;5052707;28;20060;-73
2021/01/29 09:51:58;;;;;;;7.00;3.83;;;5.50;83.80;;;;;;5055301;28;20041;-69
2021/01/29 09:54:32;;;;;;;4.07;3.13;;;5.50;83.80;;;;;;5051196;28;20017;-69
2021/01/29 09:57:04;;;;;;;6.20;3.92;;;5.50;83.60;;;;;;5059689;28;20025;-69
2021/01/29 09:59:55;;;;;;;5.03;3.13;;;5.50;83.80;;;;;;5059746;28;20116;-70
2021/01/29 10:02:23;;;;;;;4.55;3.10;;;5.50;83.50;;;;;;5057844;28;20017;-72
2021/01/29 10:04:58;;;;;;;3.58;2.65;;;5.50;83.20;;;;;;5055022;28;20065;-70
2021/01/29 10:07:27;;;;;;;4.07;2.30;;;5.50;83.30;;;;;;5058302;28;20460;-71
2021/01/29 10:10:28;;;;;;;1.80;1.50;;;5.50;83.40;;;;;;5067187;28;20111;-69
2021/01/29 10:13:11;;;;;;;4.38;2.60;;;5.50;83.50;;;;;;5054251;28;20059;-70
2021/01/29 10:15:39;;;;;;;1.83;1.00;;;5.50;84.00;;;;;;5064254;28;20035;-71
2021/01/29 10:18:20;;;;;;;5.82;3.70;;;5.50;83.40;;;;;;5061275;28;20036;-69
2021/01/29 10:20:46;;;;;;;4.80;3.65;;;5.50;83.40;;;;;;5061024;28;20071;-72
2021/01/29 10:23:33;;;;;;;4.65;3.05;;;5.50;83.30;;;;;;5052132;28;20045;-71
2021/01/29 10:26:10;;;;;;;4.47;2.90;;;5.50;83.30;;;;;;5051742;28;20563;-72
2021/01/29 10:29:07;;;;;;;0.98;0.88;;;5.50;83.30;;;;;;5062875;28;20029;-81
2021/01/29 10:32:05;;;;;;;0.68;0.68;;;5.50;83.40;;;;;;5054659;28;20136;-74
2021/01/29 10:34:36;;;;;;;2.92;1.75;;;5.60;83.50;;;;;;5076317;28;20032;-73
2021/01/29 10:37:12;;;;;;;2.13;1.73;;;5.50;83.50;;;;;;5103135;28;20057;-74
2021/01/29 10:40:15;;;;;;;2.35;1.58;;;5.60;83.60;;;;;;5103463;28;20038;-75
2021/01/29 10:42:50;;;;;;;4.32;2.83;;;5.50;83.80;;;;;;5093018;28;20034;-70
2021/01/29 10:45:20;;;;;;;3.53;2.40;;;5.60;83.70;;;;;;5092795;28;20161;-70
2021/01/29 10:48:00;;;;;;;4.65;2.35;;;5.60;83.60;;;;;;5092339;28;20104;-68
2021/01/29 10:50:32;;;;;;;4.30;1.45;;;5.60;83.60;;;;;;5097016;28;20027;-71
2021/01/29 10:53:17;;;;;;;3.60;2.50;;;5.60;83.60;;;;;;5102607;28;20055;-70
2021/01/29 10:56:00;;;;;;;2.08;1.60;;;5.60;83.60;;;;;;5102916;28;20186;-71
2021/01/29 10:59:09;;;;;;;5.17;3.03;;;5.60;83.60;;;;;;5107092;28;20066;-70
2021/01/29 11:01:39;;;;;;;3.72;2.38;;;5.60;83.60;;;;;;5102900;28;20269;-77
2021/01/29 11:04:32;;;;;;;2.45;2.08;;;5.60;83.40;;;;;;5090062;28;20024;-71
2021/01/29 11:07:21;;;;;;;3.07;2.23;;;5.60;83.50;;;;;;5098747;28;20077;-78
2021/01/29 11:10:13;;;;;;;3.95;1.92;;;5.70;83.40;;;;;;5106441;28;20399;-68
2021/01/29 11:12:53;;;;;;;3.65;1.48;;;5.70;83.40;;;;;;5079148;28;20129;-67
2021/01/29 11:15:22;;;;;;;3.63;2.72;;;5.70;83.30;;;;;;5091687;28;20028;-68
2021/01/29 11:18:20;;;;;;;1.83;1.23;;;5.80;83.30;;;;;;5091804;28;20031;-68
2021/01/29 11:20:47;;;;;;;4.55;2.42;;;5.70;83.30;;;;;;5088503;28;20035;-68
2021/01/29 11:23:39;;;;;;;3.97;2.70;;;5.70;83.20;;;;;;5101210;28;20024;-69
2021/01/29 11:26:25;;;;;;;5.07;2.53;;;5.70;83.20;;;;;;5106827;28;20039;-69
2021/01/29 11:29:33;;;;;;;2.42;1.88;;;5.70;83.20;;;;;;5094581;28;20028;-69
2021/01/29 11:32:17;;;;;;;3.33;1.95;;;5.80;83.20;;;;;;5090394;28;20067;-70
2021/01/29 11:34:43;;;;;;;;;;;5.80;83.10;;;;;;5098733;28;20051;-68
2021/01/29 11:37:38;;;;;;;3.72;2.80;;;5.80;83.10;;;;;;5106872;28;19907;-68
2021/01/29 11:40:15;;;;;;;3.35;2.50;;;5.80;82.90;;;;;;5106602;28;20044;-68
2021/01/29 11:42:53;;;;;;;4.43;2.75;;;5.80;83.50;;;;;;5099014;28;20031;-69
2021/01/29 11:45:26;;;;;;;3.13;2.05;;;5.80;83.00;;;;;;5103846;28;20451;-68
2021/01/29 11:48:17;;;;;;;3.40;2.42;;;5.80;83.00;;;;;;5091258;28;20035;-69
2021/01/29 11:51:06;;;;;;;1.75;1.33;;;5.80;83.00;;;;;;5095214;28;20115;-68
2021/01/29 11:54:01;;;;;;;1.98;1.75;;;5.80;82.90;;;;;;5094876;28;20077;-68
2021/01/29 11:56:36;;;;;;;3.78;2.15;;;5.80;82.90;;;;;;5078498;28;20127;-67
2021/01/29 11:59:39;;;;;;;3.00;2.05;;;5.80;83.00;;;;;;5106092;28;20543;-68
2021/01/29 12:02:14;;;;;;;2.53;1.20;;;5.90;83.10;;;;;;5097139;28;20110;-74
2021/01/29 12:05:03;;;;;;;3.33;2.17;;;5.90;83.00;;;;;;5108980;28;20493;-69
2021/01/29 12:07:40;;;;;;;2.92;1.70;;;5.90;83.00;;;;;;5096771;28;20077;-67
2021/01/29 12:10:10;;;;;;;1.35;1.05;;;5.90;83.00;;;;;;5107958;28;20114;-69
2021/01/29 12:13:14;;;;;;;3.03;1.95;;;5.90;83.10;;;;;;5095777;28;20115;-68
2021/01/29 12:15:47;;;;;;;2.63;2.00;;;5.90;83.10;;;;;;5085905;28;20568;-69
2021/01/29 12:18:14;;;;;;;2.50;1.65;;;6.00;83.00;;;;;;5094793;28;20047;-68
2021/01/29 12:20:43;;;;;;;3.45;1.92;;;5.90;83.00;;;;;;5094873;28;20024;-69
2021/01/29 12:23:43;;;;;;;1.75;1.45;;;6.00;83.10;;;;;;5093860;28;20142;-68
2021/01/29 12:26:27;;;;;;;1.73;1.08;;;6.00;83.10;;;;;;5094439;28;20550;-68
2021/01/29 12:29:10;;;;;;;3.25;2.15;;;6.00;83.00;;;;;;5106284;28;20089;-68
2021/01/29 12:31:54;;;;;;;4.97;1.75;;;6.00;83.00;;;;;;5094665;28;20058;-72
2021/01/29 12:34:31;;;;;;;2.85;2.20;;;6.00;83.10;;;;;;5094567;28;20474;-73
2021/01/29 12:37:20;;;;;;;4.05;1.60;;;6.00;83.00;;;;;;5108664;28;20376;-67
2021/01/29 12:39:55;;;;;;;2.08;1.70;;;6.00;83.00;;;;;;5094523;28;20031;-68
2021/01/29 12:43:00;;;;;;;2.33;1.77;;;6.00;83.00;;;;;;5094406;28;20019;-67
2021/01/29 12:45:35;;;;;;;;;;;6.00;83.00;;;;;;5109250;28;20035;-69
2021/01/29 12:48:14;;;;;;;3.25;1.90;;;6.10;83.10;;;;;;5111627;28;19915;-67
2021/01/29 12:50:43;;;;;;;1.40;0.82;;;6.00;83.00;;;;;;5097686;28;20040;-68
2021/01/29 12:53:19;;;;;;;3.08;1.92;;;6.00;83.10;;;;;;5105031;28;20066;-68
2021/01/29 12:55:50;;;;;;;0.52;0.52;;;6.00;83.30;;;;;;5106601;28;20110;-68
2021/01/29 12:58:16;;;;;;;2.97;2.10;;;6.00;83.30;;;;;;5105107;28;20024;-68
2021/01/29 13:00:44;;;;;;;1.50;1.13;;;6.10;83.30;;;;;;5094222;28;20028;-68
2021/01/29 13:03:30;;;;;;;1.95;1.40;;;6.10;83.30;;;;;;5096206;28;20024;-68
2021/01/29 13:06:49;;;;;;;1.75;1.50;;;6.10;83.30;;;;;;5093199;28;20103;-68
2021/01/29 13:09:24;;;;;;;0.77;0.77;;;6.10;83.80;;;;;;5087077;28;20460;-68
2021/01/29 13:12:02;;;;;;;3.15;1.98;;;6.20;83.00;;;;;;5095008;28;20123;-68
2021/01/29 13:14:34;;;;;;;1.90;1.40;;;6.20;83.00;;;;;;5098534;28;20118;-68
2021/01/29 13:17:26;;;;;;;4.82;2.50;;;6.20;83.60;;;;;;5093352;28;20036;-67
2021/01/29 13:20:22;;;;;;;4.00;3.15;;;6.30;83.10;;;;;;5089195;28;20035;-68
2021/01/29 13:22:52;;;;;;;4.95;3.22;;;6.20;82.80;;;;;;5093807;28;20061;-68
2021/01/29 13:25:24;;;;;;;3.92;2.95;;;6.30;82.50;;;;;;5092600;28;20031;-68
2021/01/29 13:28:05;;;;;;;6.32;3.90;;;6.20;82.30;;;;;;5093511;28;20046;-67
2021/01/29 13:30:37;;;;;;;4.35;2.95;;;6.20;82.30;;;;;;5093677;28;20488;-68
2021/01/29 13:33:26;;;;;;;5.55;3.83;;;6.20;82.40;;;;;;5092576;28;20039;-68
2021/01/29 13:36:29;;;;;;;3.05;1.77;;;6.30;82.50;;;;;;5096149;28;20074;-67
2021/01/29 13:39:21;;;;;;;5.18;3.72;;;6.20;82.60;;;;;;5085940;28;20074;-67
2021/01/29 13:41:52;;;;;;;4.28;2.88;;;6.20;82.50;;;;;;5093668;28;20179;-68
2021/01/29 13:44:34;;;;;;;3.67;2.47;;;6.20;82.50;;;;;;5092909;28;20036;-69
2021/01/29 13:47:00;;;;;;;2.15;1.67;;;6.30;82.70;;;;;;5092443;28;20549;-69
2021/01/29 13:49:32;;;;;;;3.22;2.58;;;6.20;82.60;;;;;;5093475;28;20028;-76
2021/01/29 13:51:59;;;;;;;6.13;3.58;;;6.30;82.70;;;;;;5093193;28;20093;-77
2021/01/29 13:54:29;;;;;;;4.60;2.42;;;6.30;82.70;;;;;;5092024;28;20528;-72
2021/01/29 13:57:02;;;;;;;2.60;2.05;;;6.30;82.70;;;;;;5092464;28;20081;-73
2021/01/29 13:59:39;;;;;;;4.75;2.80;;;6.30;82.60;;;;;;5094908;28;20042;-71
2021/01/29 14:02:28;;;;;;;6.03;4.03;;;6.40;82.70;;;;;;5103505;28;20432;-71
2021/01/29 14:05:09;;;;;;;3.83;2.85;;;6.30;83.10;;;;;;5111837;28;20032;-71
2021/01/29 14:07:37;;;;;;;3.50;2.55;;;6.40;82.50;;;;;;5111462;28;20378;-71
2021/01/29 14:10:16;;;;;;;4.60;3.42;;;6.40;82.40;;;;;;5109956;28;20023;-72
2021/01/29 14:12:44;;;;;;;5.35;3.60;;;6.40;82.40;;;;;;5103428;28;20044;-69
2021/01/29 14:15:30;;;;;;;4.45;3.08;;;6.40;82.30;;;;;;5092289;28;20040;-70
2021/01/29 14:18:11;;;;;;;5.53;4.32;;;6.40;82.30;;;;;;5104291;28;20028;-69
2021/01/29 14:20:47;;;;;;;7.05;5.03;;;6.40;82.20;;;;;;5109480;28;20389;-68
2021/01/29 14:23:19;;;;;;;9.88;5.72;;;6.40;81.90;;;;;;5110535;28;20020;-68
2021/01/29 14:26:11;;;;;;;7.32;5.38;;;6.40;81.80;;;;;;5108478;28;20433;-68
2021/01/29 14:29:10;;;;;;;6.93;3.92;;;6.40;81.90;;;;;;5109431;28;20486;-69